createdAt,value
2022-09-03T00:00:00.850Z,75971.50
2022-09-03T00:02:37.001Z,75975.63
2022-09-03T00:05:18.517Z,75963.28
2022-09-03T00:08:02.664Z,75961.25
2022-09-03T00:10:31.335Z,75975.63
2022-09-03T00:13:00.401Z,75971.50
2022-09-03T00:15:27.458Z,75959.19
2022-09-03T00:17:59.163Z,75977.69
2022-09-03T00:20:38.804Z,75985.91
2022-09-03T00:23:08.350Z,75992.06
2022-09-03T00:25:39.525Z,76008.50
2022-09-03T00:28:08.219Z,76020.84
2022-09-03T00:30:35.752Z,76029.06
2022-09-03T00:33:11.368Z,76029.06
2022-09-03T00:35:47.748Z,76033.19
2022-09-03T00:38:15.103Z,76024.94
2022-09-03T00:40:42.191Z,76020.84
2022-09-03T00:43:32.759Z,76055.78
2022-09-03T00:46:20.504Z,76053.72
2022-09-03T00:49:03.062Z,76033.19
2022-09-03T00:51:36.344Z,76074.28
2022-09-03T00:54:06.267Z,76053.72
2022-09-03T00:57:05.446Z,76057.84
2022-09-03T00:59:36.062Z,76066.06
2022-09-03T01:02:06.417Z,76082.50
2022-09-03T01:04:33.640Z,76103.06
2022-09-03T01:07:03.595Z,76111.28
2022-09-03T01:09:51.944Z,76105.13
2022-09-03T01:12:21.889Z,76111.28
2022-09-03T01:15:08.072Z,76121.56
2022-09-03T01:17:38.898Z,76154.44
2022-09-03T01:20:25.252Z,76152.38
2022-09-03T01:23:04.499Z,76150.34
2022-09-03T01:25:40.749Z,76150.34
2022-09-03T01:28:20.657Z,76170.88
2022-09-03T01:31:17.297Z,76140.06
2022-09-03T01:33:50.656Z,76144.16
2022-09-03T01:36:24.457Z,76111.28
2022-09-03T01:39:01.959Z,76129.78
2022-09-03T01:41:54.522Z,76160.59
2022-09-03T01:44:40.680Z,76152.38
2022-09-03T01:47:26.432Z,76140.06
2022-09-03T01:50:07.530Z,76131.84
2022-09-03T01:52:40.634Z,76144.16
2022-09-03T01:55:26.098Z,76148.28
2022-09-03T01:57:56.209Z,76135.94
2022-09-03T02:00:23.514Z,76148.28
2022-09-03T02:02:53.686Z,76152.38
2022-09-03T02:05:24.959Z,76181.16
2022-09-03T02:08:02.744Z,76175.00
2022-09-03T02:10:31.654Z,76168.84
2022-09-03T02:13:05.551Z,76177.06
2022-09-03T02:15:34.717Z,76156.50
2022-09-03T02:18:02.477Z,76140.06
2022-09-03T02:20:29.823Z,76140.06
2022-09-03T02:22:57.539Z,76177.06
2022-09-03T02:25:26.423Z,76175.00
2022-09-03T02:27:53.733Z,76187.31
2022-09-03T02:30:20.950Z,76189.38
2022-09-03T02:32:48.082Z,76177.06
2022-09-03T02:35:15.928Z,76185.28
2022-09-03T02:37:43.038Z,76197.59
2022-09-03T02:40:11.123Z,76177.06
2022-09-03T02:42:38.414Z,76177.06
2022-09-03T02:45:44.329Z,76181.16
2022-09-03T02:48:11.543Z,76160.59
2022-09-03T02:50:42.084Z,76154.44
2022-09-03T02:53:09.240Z,76177.06
2022-09-03T02:55:36.388Z,76152.38
2022-09-03T02:58:03.551Z,76146.22
2022-09-03T03:00:31.044Z,76160.59
2022-09-03T03:02:58.302Z,76152.38
2022-09-03T03:05:26.715Z,76140.06
2022-09-03T03:07:54.400Z,76148.28
2022-09-03T03:10:21.774Z,76156.50
2022-09-03T03:12:50.052Z,76152.38
2022-09-03T03:15:17.250Z,76138.00
2022-09-03T03:17:44.426Z,76150.34
2022-09-03T03:20:11.513Z,76152.38
2022-09-03T03:22:38.620Z,76152.38
2022-09-03T03:25:05.956Z,76152.38
2022-09-03T03:27:33.099Z,76168.84
2022-09-03T03:30:00.393Z,76152.38
2022-09-03T03:32:27.465Z,76140.06
2022-09-03T03:34:54.839Z,76181.16
2022-09-03T03:37:21.914Z,76177.06
2022-09-03T03:39:49.171Z,76179.09
2022-09-03T03:42:16.359Z,76156.50
2022-09-03T03:44:45.226Z,76172.94
2022-09-03T03:47:12.683Z,76183.22
2022-09-03T03:49:39.765Z,76179.09
2022-09-03T03:52:06.869Z,76168.84
2022-09-03T03:54:34.079Z,76148.28
2022-09-03T03:57:01.211Z,76164.72
2022-09-03T03:59:28.342Z,76144.16
2022-09-03T04:01:55.523Z,76168.84
2022-09-03T04:04:22.713Z,76148.28
2022-09-03T04:06:49.778Z,76154.44
2022-09-03T04:09:16.851Z,76172.94
2022-09-03T04:11:45.298Z,76156.50
2022-09-03T04:14:12.447Z,76148.28
2022-09-03T04:16:41.188Z,76115.38
2022-09-03T04:19:08.325Z,76105.13
2022-09-03T04:21:35.553Z,76086.63
2022-09-03T04:24:03.940Z,76103.06
2022-09-03T04:26:34.037Z,76094.84
2022-09-03T04:29:02.981Z,76103.06
2022-09-03T04:31:30.349Z,76127.72
2022-09-03T04:33:58.886Z,76140.06
2022-09-03T04:36:26.778Z,76127.72
2022-09-03T04:38:54.637Z,76135.94
2022-09-03T04:41:23.059Z,76140.06
2022-09-03T04:43:54.165Z,76140.06
2022-09-03T04:46:23.490Z,76115.38
2022-09-03T04:48:51.535Z,76111.28
2022-09-03T04:51:22.507Z,76094.84
2022-09-03T04:53:53.398Z,76057.84
2022-09-03T04:56:27.683Z,76051.66
2022-09-03T04:58:55.575Z,76029.06
2022-09-03T05:01:23.348Z,76020.84
2022-09-03T05:03:53.942Z,76004.41
2022-09-03T05:06:21.038Z,76004.41
2022-09-03T05:08:48.966Z,76010.56
2022-09-03T05:11:17.720Z,76000.28
2022-09-03T05:13:47.603Z,75977.69
2022-09-03T05:16:17.050Z,75950.97
2022-09-03T05:18:45.176Z,75950.97
2022-09-03T05:21:16.096Z,75955.06
2022-09-03T05:23:43.916Z,75938.63
2022-09-03T05:26:14.878Z,75942.75
2022-09-03T05:28:42.410Z,75930.41
2022-09-03T05:31:10.885Z,75946.84
2022-09-03T05:33:38.928Z,75920.13
2022-09-03T05:36:07.559Z,75893.41
2022-09-03T05:38:35.642Z,75893.41
2022-09-03T05:41:03.410Z,75852.31
2022-09-03T05:43:30.678Z,75835.88
2022-09-03T05:46:08.023Z,75798.88
2022-09-03T05:48:35.751Z,75759.81
2022-09-03T05:51:03.772Z,75757.78
2022-09-03T05:53:31.174Z,75720.78
2022-09-03T05:55:59.709Z,75720.78
2022-09-03T05:58:33.598Z,75704.34
2022-09-03T06:01:00.824Z,75696.13
2022-09-03T06:03:28.273Z,75683.78
2022-09-03T06:05:55.826Z,75667.34
2022-09-03T06:08:22.901Z,75644.75
2022-09-03T06:10:51.771Z,75605.69
2022-09-03T06:13:19.292Z,75603.63
2022-09-03T06:15:46.694Z,75605.69
2022-09-03T06:18:13.849Z,75605.69
2022-09-03T06:20:41.075Z,75605.69
2022-09-03T06:23:08.400Z,75570.75
2022-09-03T06:25:35.601Z,75564.59
2022-09-03T06:28:03.680Z,75581.03
2022-09-03T06:30:30.792Z,75576.91
2022-09-03T06:32:58.461Z,75564.59
2022-09-03T06:35:25.578Z,75535.81
2022-09-03T06:37:54.080Z,75519.38
2022-09-03T06:40:22.883Z,75490.59
2022-09-03T06:42:59.317Z,75465.94
2022-09-03T06:45:26.439Z,75420.72
2022-09-03T06:47:53.990Z,75408.41
2022-09-03T06:50:21.424Z,75453.63
2022-09-03T06:52:54.653Z,75424.84
2022-09-03T06:55:22.856Z,75396.06
2022-09-03T06:57:53.140Z,75373.47
2022-09-03T07:00:21.834Z,75357.03
2022-09-03T07:02:57.153Z,75342.66
2022-09-03T07:05:25.845Z,75348.81
2022-09-03T07:07:53.271Z,75330.31
2022-09-03T07:10:21.862Z,75350.88
2022-09-03T07:12:49.074Z,75367.31
2022-09-03T07:15:16.314Z,75371.41
2022-09-03T07:17:43.981Z,75400.19
2022-09-03T07:20:11.049Z,75371.41
2022-09-03T07:22:38.151Z,75367.31
2022-09-03T07:25:05.510Z,75354.97
2022-09-03T07:27:32.696Z,75326.22
2022-09-03T07:29:59.876Z,75336.47
2022-09-03T07:32:27.773Z,75324.16
2022-09-03T07:34:55.203Z,75313.88
2022-09-03T07:37:22.670Z,75293.34
2022-09-03T07:39:50.551Z,75252.22
2022-09-03T07:42:17.925Z,75244.00
2022-09-03T07:44:45.060Z,75204.97
2022-09-03T07:47:13.270Z,75211.13
2022-09-03T07:49:40.626Z,75174.16
2022-09-03T07:52:08.020Z,75120.72
2022-09-03T07:54:39.557Z,75061.13
2022-09-03T07:57:07.272Z,75046.75
2022-09-03T07:59:34.472Z,74993.31
2022-09-03T08:02:01.602Z,74929.63
2022-09-03T08:04:28.799Z,74902.91
2022-09-03T08:06:56.903Z,74892.66
2022-09-03T08:09:24.614Z,74927.56
2022-09-03T08:11:52.543Z,74958.41
2022-09-03T08:14:19.641Z,74950.19
2022-09-03T08:16:49.766Z,74915.25
2022-09-03T08:19:18.386Z,74845.38
2022-09-03T08:21:46.003Z,74767.31
2022-09-03T08:24:14.520Z,74804.31
2022-09-03T08:26:50.635Z,74812.53
2022-09-03T08:29:18.606Z,74746.78
2022-09-03T08:31:45.953Z,74736.50
2022-09-03T08:34:14.920Z,74699.50
2022-09-03T08:36:42.284Z,74607.06
2022-09-03T08:39:10.484Z,74531.03
2022-09-03T08:41:53.836Z,74317.38
2022-09-03T08:44:21.009Z,74362.59
2022-09-03T08:46:54.474Z,74413.94
2022-09-03T08:49:26.532Z,74450.94
2022-09-03T08:51:54.652Z,74442.72
2022-09-03T08:54:22.072Z,74286.56
2022-09-03T08:56:49.458Z,74204.41
2022-09-03T08:59:16.580Z,74126.34
2022-09-03T09:01:55.799Z,73939.41
2022-09-03T09:04:46.927Z,74003.09
2022-09-03T09:07:27.353Z,73902.44
2022-09-03T09:09:57.818Z,73999.00
2022-09-03T09:12:37.575Z,73955.84
2022-09-03T09:15:30.199Z,73818.22
2022-09-03T09:17:57.274Z,73881.91
2022-09-03T09:20:26.664Z,73888.06
2022-09-03T09:23:17.034Z,73871.63
2022-09-03T09:25:48.462Z,73818.22
2022-09-03T09:28:20.097Z,73713.47
2022-09-03T09:30:47.746Z,73748.38
2022-09-03T09:33:15.618Z,74052.41
2022-09-03T09:35:43.199Z,74253.72
2022-09-03T09:38:10.674Z,74467.34
2022-09-03T09:40:45.240Z,74607.06
2022-09-03T09:43:16.121Z,74629.66
2022-09-03T09:45:44.231Z,74584.47
2022-09-03T09:48:19.038Z,74570.09
2022-09-03T09:50:46.182Z,74553.66
2022-09-03T09:53:16.490Z,74565.97
2022-09-03T09:55:53.797Z,74537.22
2022-09-03T09:58:21.640Z,74500.22
2022-09-03T10:01:15.191Z,74463.25
2022-09-03T10:03:49.224Z,74389.28
2022-09-03T10:06:34.999Z,74426.28
2022-09-03T10:09:23.341Z,74450.94
2022-09-03T10:12:19.622Z,74434.50
2022-09-03T10:14:48.176Z,74516.66
2022-09-03T10:17:36.954Z,74524.88
2022-09-03T10:20:31.431Z,74510.50
2022-09-03T10:23:04.611Z,74424.22
2022-09-03T10:25:56.138Z,74253.72
2022-09-03T10:28:25.352Z,74208.50
2022-09-03T10:30:58.750Z,74216.72
2022-09-03T10:33:32.919Z,74241.38
2022-09-03T10:36:06.962Z,74278.34
2022-09-03T10:38:36.869Z,74298.91
2022-09-03T10:41:13.384Z,74366.69
2022-09-03T10:43:41.836Z,74477.63
2022-09-03T10:46:18.374Z,74483.78
2022-09-03T10:49:07.374Z,74379.03
2022-09-03T10:51:36.797Z,74327.66
2022-09-03T10:54:24.246Z,74319.44
2022-09-03T10:56:56.671Z,74134.56
2022-09-03T10:59:29.861Z,73959.97
2022-09-03T11:01:59.800Z,73783.31
2022-09-03T11:04:27.023Z,73758.66
2022-09-03T11:06:54.815Z,73834.66
2022-09-03T11:09:27.185Z,73912.72
2022-09-03T11:11:58.118Z,74001.03
2022-09-03T11:14:33.877Z,74023.63
2022-09-03T11:17:12.204Z,74109.91
2022-09-03T11:19:47.693Z,74183.88
2022-09-03T11:22:16.307Z,74079.09
2022-09-03T11:24:50.200Z,73941.47
2022-09-03T11:27:30.876Z,73951.75
2022-09-03T11:30:07.541Z,73916.81
2022-09-03T11:32:41.047Z,73982.56
2022-09-03T11:35:14.990Z,74056.50
2022-09-03T11:37:47.859Z,74001.03
2022-09-03T11:40:20.174Z,73949.69
2022-09-03T11:42:47.668Z,73867.53
2022-09-03T11:45:22.244Z,73896.28
2022-09-03T11:47:49.522Z,73834.66
2022-09-03T11:50:25.379Z,74031.84
2022-09-03T11:52:54.280Z,74109.91
2022-09-03T11:55:37.502Z,74126.34
2022-09-03T11:58:24.446Z,74261.94
2022-09-03T12:00:54.117Z,74348.22
2022-09-03T12:03:37.551Z,74428.31
2022-09-03T12:06:15.213Z,74465.31
2022-09-03T12:08:48.397Z,74465.31
2022-09-03T12:11:25.692Z,74438.59
2022-09-03T12:14:13.919Z,74422.16
2022-09-03T12:17:01.511Z,74422.16
2022-09-03T12:19:32.313Z,74459.16
2022-09-03T12:22:01.669Z,74485.84
2022-09-03T12:24:33.618Z,74485.84
2022-09-03T12:27:04.711Z,74450.94
2022-09-03T12:29:31.912Z,74444.75
2022-09-03T12:32:06.904Z,74459.16
2022-09-03T12:34:34.187Z,74485.84
2022-09-03T12:37:01.517Z,74479.69
2022-09-03T12:42:19.693Z,74510.50
2022-09-03T12:44:47.506Z,74545.44
2022-09-03T12:50:07.026Z,74500.22
2022-09-03T12:52:35.949Z,74477.63
2022-09-03T12:55:08.053Z,74467.34
2022-09-03T12:57:36.580Z,74520.78
2022-09-03T13:00:07.869Z,74533.09
2022-09-03T13:02:47.990Z,74529.00
2022-09-03T13:05:17.239Z,74590.63
2022-09-03T13:07:53.030Z,74574.19
2022-09-03T13:10:27.814Z,74557.75
2022-09-03T13:12:58.456Z,74590.63
2022-09-03T13:15:25.785Z,74590.63
2022-09-03T13:17:58.910Z,74565.97
2022-09-03T13:20:34.350Z,74547.47
2022-09-03T13:23:01.486Z,74545.44
2022-09-03T13:25:35.439Z,74574.19
2022-09-03T13:28:21.354Z,74535.16
2022-09-03T13:31:00.452Z,74563.91
2022-09-03T13:33:47.868Z,74609.13
2022-09-03T13:36:21.905Z,74627.59
2022-09-03T13:38:55.269Z,74658.44
2022-09-03T13:41:25.173Z,74656.38
2022-09-03T13:44:00.022Z,74664.59
2022-09-03T13:46:30.089Z,74650.22
2022-09-03T13:49:25.289Z,74656.38
2022-09-03T13:51:55.772Z,74693.34
2022-09-03T13:54:48.224Z,74701.56
2022-09-03T13:57:20.248Z,74707.72
2022-09-03T14:00:09.548Z,74730.34
2022-09-03T14:02:49.192Z,74740.59
2022-09-03T14:05:17.988Z,74775.53
2022-09-03T14:07:58.343Z,74767.31
2022-09-03T14:10:58.406Z,74800.19
2022-09-03T14:13:40.766Z,74812.53
2022-09-03T14:16:18.727Z,74820.75
2022-09-03T14:19:06.399Z,74820.75
2022-09-03T14:21:40.482Z,74849.50
2022-09-03T14:24:10.689Z,74835.13
2022-09-03T14:26:40.036Z,74824.84
2022-09-03T14:29:10.316Z,74826.91
2022-09-03T14:31:55.964Z,74808.41
2022-09-03T14:34:26.479Z,74806.34
2022-09-03T14:36:58.399Z,74810.47
2022-09-03T14:39:32.764Z,74812.53
2022-09-03T14:42:11.267Z,74820.75
2022-09-03T14:44:41.599Z,74820.75
2022-09-03T14:47:28.615Z,74828.94
2022-09-03T14:49:58.695Z,74824.84
2022-09-03T14:52:44.396Z,74824.84
2022-09-03T14:55:17.385Z,74828.94
2022-09-03T14:57:44.811Z,74826.91
2022-09-03T15:00:19.767Z,74833.06
2022-09-03T15:02:47.110Z,74845.38
2022-09-03T15:05:33.024Z,74845.38
2022-09-03T15:08:08.459Z,74833.06
2022-09-03T15:10:42.455Z,74853.59
2022-09-03T15:13:29.794Z,74870.03
2022-09-03T15:16:30.111Z,74870.03
2022-09-03T15:19:01.910Z,74884.44
2022-09-03T15:21:29.202Z,74882.38
2022-09-03T15:23:56.384Z,74870.03
2022-09-03T15:26:32.837Z,74894.69
2022-09-03T15:29:24.461Z,74902.91
2022-09-03T15:31:51.641Z,74898.81
2022-09-03T15:34:22.431Z,74902.91
2022-09-03T15:36:50.795Z,74919.34
2022-09-03T15:39:25.237Z,74907.03
2022-09-03T15:41:53.765Z,74931.69
2022-09-03T15:44:20.953Z,74925.53
2022-09-03T15:47:00.994Z,74933.75
2022-09-03T15:49:44.701Z,74931.69
2022-09-03T15:52:31.604Z,74907.03
2022-09-03T15:55:03.223Z,74915.25
2022-09-03T15:57:36.623Z,74950.19
2022-09-03T16:00:07.956Z,74950.19
2022-09-03T16:02:59.803Z,74968.66
2022-09-03T16:05:45.676Z,74970.72
2022-09-03T16:08:19.104Z,74981.00
2022-09-03T16:10:51.065Z,74976.88
2022-09-03T16:13:45.318Z,74972.78
2022-09-03T16:16:14.882Z,74985.09
2022-09-03T16:18:49.773Z,75001.53
2022-09-03T16:21:20.147Z,74987.16
2022-09-03T16:23:53.345Z,74997.44
2022-09-03T16:26:22.182Z,75013.88
2022-09-03T16:28:49.369Z,75009.75
2022-09-03T16:31:16.619Z,75005.66
2022-09-03T16:33:46.583Z,75013.88
2022-09-03T16:36:32.278Z,75024.16
2022-09-03T16:39:02.105Z,75017.97
2022-09-03T16:41:50.912Z,75017.97
2022-09-03T16:44:38.902Z,75042.66
2022-09-03T16:47:08.275Z,75054.97
2022-09-03T16:49:48.113Z,75057.03
2022-09-03T16:52:15.960Z,75042.66
2022-09-03T16:54:51.849Z,75050.88
2022-09-03T16:57:44.843Z,75054.97
2022-09-03T17:00:19.866Z,75063.19
2022-09-03T17:02:47.033Z,75071.41
2022-09-03T17:05:26.569Z,75059.06
2022-09-03T17:08:01.038Z,75075.53
2022-09-03T17:10:32.205Z,75087.84
2022-09-03T17:13:14.754Z,75108.41
2022-09-03T17:16:01.049Z,75153.59
2022-09-03T17:18:31.349Z,75172.09
2022-09-03T17:21:04.275Z,75157.72
2022-09-03T17:23:50.310Z,75149.50
2022-09-03T17:26:17.446Z,75165.94
2022-09-03T17:28:44.556Z,75165.94
2022-09-03T17:31:17.949Z,75165.94
2022-09-03T17:34:04.839Z,75178.25
2022-09-03T17:36:33.714Z,75178.25
2022-09-03T17:39:00.964Z,75165.94
2022-09-03T17:41:40.909Z,75170.03
2022-09-03T17:44:31.510Z,75178.25
2022-09-03T17:47:17.431Z,75186.47
2022-09-03T17:49:45.373Z,75186.47
2022-09-03T17:52:39.251Z,75178.25
2022-09-03T17:55:17.251Z,75202.91
2022-09-03T17:57:46.141Z,75202.91
2022-09-03T18:00:22.861Z,75209.09
2022-09-03T18:02:50.124Z,75215.25
2022-09-03T18:05:17.203Z,75207.03
2022-09-03T18:07:51.744Z,75186.47
2022-09-03T18:10:18.964Z,75190.59
2022-09-03T18:13:02.987Z,75198.81
2022-09-03T18:15:32.867Z,75194.69
2022-09-03T18:18:05.123Z,75202.91
2022-09-03T18:21:21.133Z,75184.41
2022-09-03T18:24:09.506Z,75190.59
2022-09-03T18:27:06.641Z,75178.25
2022-09-03T18:30:02.329Z,75186.47
2022-09-03T18:32:48.306Z,75174.16
2022-09-03T18:35:34.363Z,75200.88
2022-09-03T18:38:23.757Z,75198.81
2022-09-03T18:41:18.399Z,75223.47
2022-09-03T18:44:11.518Z,75244.00
2022-09-03T18:50:28.249Z,75260.44
2022-09-03T18:53:34.191Z,75289.22
2022-09-03T18:56:26.886Z,75313.88
2022-09-03T18:59:15.768Z,75322.09
2022-09-03T19:02:01.625Z,75346.75
2022-09-03T19:05:11.081Z,75357.03
2022-09-03T19:08:00.285Z,75363.19
2022-09-03T19:11:06.512Z,75371.41
2022-09-03T19:13:55.937Z,75363.19
2022-09-03T19:16:45.011Z,75418.69
2022-09-03T19:19:34.084Z,75441.28
2022-09-03T19:22:24.980Z,75484.44
2022-09-03T19:25:10.882Z,75500.88
2022-09-03T19:28:07.991Z,75515.25
2022-09-03T19:30:58.893Z,75564.59
2022-09-03T19:33:57.267Z,75597.47
2022-09-03T19:36:42.885Z,75585.13
2022-09-03T19:39:44.168Z,75581.03
2022-09-03T19:42:50.408Z,75609.81
2022-09-03T19:45:48.732Z,75630.34
2022-09-03T19:48:34.725Z,75642.69
2022-09-03T19:51:23.506Z,75663.22
2022-09-03T19:54:09.155Z,75663.22
2022-09-03T19:56:54.931Z,75675.56
2022-09-03T19:59:42.034Z,75683.78
2022-09-03T20:02:27.971Z,75683.78
2022-09-03T20:05:17.537Z,75714.59
2022-09-03T20:08:03.798Z,75700.22
2022-09-03T20:10:30.878Z,75700.22
2022-09-03T20:13:13.559Z,75720.78
2022-09-03T20:15:43.886Z,75726.94
2022-09-03T20:18:17.698Z,75724.88
2022-09-03T20:20:46.526Z,75720.78
2022-09-03T20:23:28.976Z,75716.66
2022-09-03T20:26:10.280Z,75724.88
2022-09-03T20:28:51.475Z,75706.38
2022-09-03T20:31:40.078Z,75704.34
2022-09-03T20:34:26.282Z,75716.66
2022-09-03T20:36:56.796Z,75733.09
2022-09-03T20:39:30.149Z,75753.66
2022-09-03T20:42:15.768Z,75753.66
2022-09-03T20:45:09.795Z,75745.44
2022-09-03T20:47:39.226Z,75766.00
2022-09-03T20:50:18.730Z,75766.00
2022-09-03T20:52:53.301Z,75774.22
2022-09-03T20:55:21.443Z,75772.16
2022-09-03T20:57:53.019Z,75802.97
2022-09-03T21:00:20.155Z,75852.31
2022-09-03T21:03:07.635Z,75868.75
2022-09-03T21:05:55.141Z,75899.56
2022-09-03T21:08:29.736Z,75887.25
2022-09-03T21:11:08.336Z,75881.09
2022-09-03T21:13:42.491Z,75881.09
2022-09-03T21:16:28.838Z,75879.03
2022-09-03T21:18:55.929Z,75881.09
2022-09-03T21:21:36.471Z,75881.09
2022-09-03T21:24:05.224Z,75881.09
2022-09-03T21:26:39.954Z,75913.97
2022-09-03T21:29:08.978Z,75913.97
2022-09-03T21:31:55.512Z,75924.25
2022-09-03T21:34:52.247Z,75938.63
2022-09-03T21:37:19.336Z,75934.53
2022-09-03T21:39:56.205Z,75942.75
2022-09-03T21:42:23.498Z,75950.97
2022-09-03T21:44:50.622Z,75950.97
2022-09-03T21:47:18.684Z,75981.78
2022-09-03T21:50:04.799Z,75971.50
2022-09-03T21:52:37.985Z,75987.97
2022-09-03T21:55:09.903Z,75992.06
2022-09-03T21:57:43.609Z,76033.19
2022-09-03T22:00:21.786Z,76016.72
2022-09-03T22:02:49.308Z,76014.69
2022-09-03T22:05:16.757Z,76012.63
2022-09-03T22:08:03.889Z,76014.69
2022-09-03T22:10:33.847Z,76016.72
2022-09-03T22:13:36.564Z,76008.50
2022-09-03T22:16:13.486Z,76008.50
2022-09-03T22:18:41.071Z,76043.44
2022-09-03T22:21:13.355Z,76055.78
2022-09-03T22:23:43.709Z,76035.22
2022-09-03T22:26:22.546Z,76041.41
2022-09-03T22:29:02.278Z,76049.63
2022-09-03T22:31:50.051Z,76053.72
2022-09-03T22:34:29.379Z,76045.50
2022-09-03T22:37:01.593Z,76045.50
2022-09-03T22:39:31.578Z,76049.63
2022-09-03T22:42:13.680Z,76053.72
2022-09-03T22:44:56.171Z,76053.72
2022-09-03T22:47:23.217Z,76070.16
2022-09-03T22:49:52.887Z,76066.06
2022-09-03T22:52:33.835Z,76049.63
2022-09-03T22:55:10.053Z,76070.16
2022-09-03T22:57:40.946Z,76066.06
2022-09-03T23:00:09.209Z,76053.72
2022-09-03T23:02:36.635Z,76057.84
2022-09-03T23:05:22.551Z,76045.50
2022-09-03T23:08:03.227Z,76051.66
2022-09-03T23:10:53.994Z,76055.78
2022-09-03T23:13:22.728Z,76068.13
2022-09-03T23:15:54.216Z,76049.63
2022-09-03T23:18:23.629Z,76041.41
2022-09-03T23:20:55.925Z,76057.84
2022-09-03T23:23:25.714Z,76041.41
2022-09-03T23:26:12.307Z,76096.88
2022-09-03T23:28:44.586Z,76094.84
2022-09-03T23:31:12.305Z,76082.50
2022-09-03T23:33:39.713Z,76061.94
2022-09-03T23:36:43.335Z,76078.41
2022-09-03T23:39:14.803Z,76045.50
2022-09-03T23:41:48.752Z,76070.16
2022-09-03T23:44:18.709Z,76078.41
2022-09-03T23:47:04.438Z,76074.28
2022-09-03T23:49:50.818Z,76061.94
2022-09-03T23:52:41.352Z,76078.41
2022-09-03T23:55:08.679Z,76078.41
2022-09-03T23:57:45.840Z,76078.41
